createdAt,value
2018-12-11T13:40:39.004Z,17.46
2018-12-11T13:41:38.483Z,17.54
2018-12-11T13:42:37.545Z,17.47
2018-12-11T13:43:37.523Z,17.57
2018-12-11T13:44:37.539Z,17.49
2018-12-11T13:45:37.544Z,17.51
2018-12-11T13:46:37.462Z,17.40
2018-12-11T13:47:37.492Z,17.43
2018-12-11T13:48:37.729Z,17.40
2018-12-11T13:49:37.705Z,17.45
2018-12-11T13:50:37.688Z,17.36
2018-12-11T13:51:37.700Z,17.33
2018-12-11T13:52:37.594Z,17.43
2018-12-11T13:53:37.390Z,17.38
2018-12-11T13:54:37.374Z,17.43
2018-12-11T13:55:37.406Z,17.42
2018-12-11T13:56:37.353Z,17.46
2018-12-11T13:57:37.467Z,17.51
2018-12-11T13:58:37.375Z,17.46
2018-12-11T13:59:38.548Z,17.55
2018-12-11T14:00:37.347Z,17.58
2018-12-11T14:01:38.204Z,17.57
2018-12-11T14:02:37.385Z,17.63
2018-12-11T14:03:37.279Z,17.68
2018-12-11T14:04:37.385Z,17.73
2018-12-11T14:05:37.956Z,17.65
2018-12-11T14:06:38.260Z,17.77
2018-12-11T14:07:37.234Z,17.74
2018-12-11T14:08:37.453Z,17.84
2018-12-11T14:09:37.284Z,17.86
2018-12-11T14:10:37.209Z,17.83
2018-12-11T14:11:37.463Z,17.87
2018-12-11T14:12:37.427Z,17.94
2018-12-11T14:13:37.371Z,17.92
2018-12-11T14:14:37.154Z,17.95
2018-12-11T14:15:37.144Z,18.05
2018-12-11T14:16:37.161Z,17.91
2018-12-11T14:17:37.190Z,18.02
2018-12-11T14:18:37.724Z,18.02
2018-12-11T14:19:37.248Z,17.83
2018-12-11T14:20:37.088Z,17.94
2018-12-11T14:21:37.368Z,17.95
2018-12-11T14:22:37.080Z,17.98
2018-12-11T14:23:37.048Z,17.94
2018-12-11T14:24:37.359Z,18.04
2018-12-11T14:25:37.111Z,18.05
2018-12-11T14:26:37.111Z,17.94
2018-12-11T14:27:37.336Z,17.96
2018-12-11T14:28:37.048Z,17.95
2018-12-11T14:29:36.989Z,18.01
2018-12-11T14:30:37.026Z,18.01
2018-12-11T14:31:37.019Z,18.01
2018-12-11T14:32:37.005Z,18.04
2018-12-11T14:33:37.075Z,18.05
2018-12-11T14:34:37.153Z,17.99
2018-12-11T14:35:36.958Z,17.96
2018-12-11T14:36:36.981Z,18.02
2018-12-11T14:37:37.094Z,18.02
2018-12-11T14:38:36.961Z,17.96
2018-12-11T14:39:36.914Z,18.05
2018-12-11T14:40:36.911Z,18.02
2018-12-11T14:41:36.871Z,18.02
2018-12-11T14:42:36.933Z,17.99
2018-12-11T14:43:36.869Z,18.04
2018-12-11T14:44:36.976Z,18.05
2018-12-11T14:45:36.856Z,18.02
2018-12-11T14:46:37.347Z,18.09
2018-12-11T14:47:38.182Z,18.07
2018-12-11T14:48:36.867Z,18.02
2018-12-11T14:49:37.068Z,18.02
2018-12-11T14:50:36.791Z,17.99
2018-12-11T14:51:36.793Z,18.09
2018-12-11T14:52:36.815Z,18.01
2018-12-11T14:53:37.067Z,18.02
2018-12-11T14:54:36.728Z,18.05
2018-12-11T14:55:36.726Z,18.05
2018-12-11T14:56:36.705Z,18.01
2018-12-11T14:57:36.959Z,18.05
2018-12-11T14:58:36.958Z,18.07
2018-12-11T14:59:36.930Z,18.04
2018-12-11T15:00:39.206Z,18.07
2018-12-11T15:01:36.657Z,18.01
2018-12-11T15:02:36.670Z,18.05
2018-12-11T15:03:36.821Z,18.02
2018-12-11T15:04:36.632Z,18.02
2018-12-11T15:05:36.598Z,18.02
2018-12-11T15:06:36.844Z,18.07
2018-12-11T15:07:36.604Z,18.02
2018-12-11T15:08:36.652Z,18.04
2018-12-11T15:09:36.561Z,18.02
2018-12-11T15:10:36.825Z,18.02
2018-12-11T15:11:36.582Z,18.07
2018-12-11T15:12:36.594Z,18.01
2018-12-11T15:13:36.518Z,18.04
2018-12-11T15:14:36.568Z,18.10
2018-12-11T15:15:37.148Z,18.05
2018-12-11T15:16:36.477Z,18.07
2018-12-11T15:17:36.511Z,18.02
2018-12-11T15:18:36.711Z,18.09
2018-12-11T15:19:36.450Z,18.02
2018-12-11T15:20:36.471Z,18.10
2018-12-11T15:21:36.724Z,18.09
2018-12-11T15:22:36.451Z,18.01
2018-12-11T15:23:36.690Z,18.02
2018-12-11T15:24:36.458Z,18.07
2018-12-11T15:25:36.446Z,18.10
2018-12-11T15:26:36.364Z,18.04
2018-12-11T15:27:36.632Z,18.04
2018-12-11T15:28:36.377Z,17.99
2018-12-11T15:29:37.248Z,18.05
2018-12-11T15:30:36.329Z,18.02
2018-12-11T15:31:36.333Z,18.04
2018-12-11T15:32:36.324Z,17.99
2018-12-11T15:33:36.303Z,18.01
2018-12-11T15:34:36.299Z,18.02
2018-12-11T15:35:36.328Z,18.04
2018-12-11T15:36:36.274Z,17.98
2018-12-11T15:37:36.305Z,18.05
2018-12-11T15:38:36.260Z,18.02
2018-12-11T15:39:36.495Z,18.01
2018-12-11T15:40:36.471Z,18.01
2018-12-11T15:41:36.211Z,17.96
2018-12-11T15:42:36.259Z,17.99
2018-12-11T15:43:36.192Z,18.07
2018-12-11T15:44:36.614Z,17.99
2018-12-11T15:45:36.174Z,18.01
2018-12-11T15:46:36.168Z,18.01
2018-12-11T15:47:36.163Z,17.99
2018-12-11T15:48:36.798Z,18.02
2018-12-11T15:49:36.127Z,17.96
2018-12-11T15:50:36.105Z,17.96
2018-12-11T15:51:36.346Z,17.96
2018-12-11T15:52:36.113Z,18.01
2018-12-11T15:53:36.322Z,17.99
2018-12-11T15:54:36.070Z,18.04
2018-12-11T15:55:36.092Z,17.99
2018-12-11T15:56:36.054Z,18.01
2018-12-11T15:57:36.092Z,17.96
2018-12-11T15:58:36.080Z,17.96
2018-12-11T15:59:36.315Z,18.01
2018-12-11T16:00:36.252Z,17.92
2018-12-11T16:01:35.999Z,18.01
2018-12-11T16:02:36.062Z,17.96
2018-12-11T16:03:35.978Z,17.96
2018-12-11T16:04:35.974Z,17.92
2018-12-11T16:05:35.956Z,17.92
2018-12-11T16:06:35.930Z,17.99
2018-12-11T16:07:39.013Z,17.94
2018-12-11T16:08:35.941Z,17.92
2018-12-11T16:09:35.963Z,17.96
2018-12-11T16:10:36.428Z,17.87
2018-12-11T16:11:35.878Z,17.92
2018-12-11T16:12:35.873Z,17.95
2018-12-11T16:13:36.992Z,17.94
2018-12-11T16:14:35.840Z,17.89
2018-12-11T16:15:35.848Z,18.04
2018-12-11T16:16:35.837Z,18.02
2018-12-11T16:17:35.827Z,17.95
2018-12-11T16:18:35.823Z,17.91
2018-12-11T16:19:35.795Z,17.94
2018-12-11T16:20:35.786Z,17.96
2018-12-11T16:21:35.856Z,17.94
2018-12-11T16:22:35.775Z,17.94
2018-12-11T16:23:35.811Z,17.92
2018-12-11T16:24:36.707Z,17.99
2018-12-11T16:25:35.741Z,17.99
2018-12-11T16:26:35.717Z,18.05
2018-12-11T16:27:35.763Z,18.04
2018-12-11T16:28:35.981Z,17.91
2018-12-11T16:29:35.690Z,18.04
2018-12-11T16:30:35.679Z,17.89
2018-12-11T16:31:35.982Z,17.87
2018-12-11T16:32:35.648Z,17.99
2018-12-11T16:33:35.650Z,17.99
2018-12-11T16:34:35.637Z,17.96
2018-12-11T16:35:35.645Z,17.95
2018-12-11T16:36:35.642Z,18.01
2018-12-11T16:37:35.595Z,17.92
2018-12-11T16:38:35.600Z,17.99
2018-12-11T16:39:35.828Z,17.89
2018-12-11T16:40:35.814Z,17.91
2018-12-11T16:41:36.283Z,17.92
2018-12-11T16:42:35.654Z,17.95
2018-12-11T16:43:35.583Z,17.87
2018-12-11T16:44:35.786Z,17.83
2018-12-11T16:45:35.803Z,17.87
2018-12-11T16:46:35.494Z,17.91
2018-12-11T16:47:35.748Z,17.81
2018-12-11T16:48:35.494Z,17.89
2018-12-11T16:49:35.709Z,17.91
2018-12-11T16:50:35.455Z,17.87
2018-12-11T16:51:35.699Z,17.87
2018-12-11T16:52:35.449Z,17.86
2018-12-11T16:53:35.454Z,17.83
2018-12-11T16:54:35.716Z,17.76
2018-12-11T16:55:35.742Z,17.77
2018-12-11T16:56:35.381Z,17.79
2018-12-11T16:57:35.467Z,17.77
2018-12-11T16:58:35.411Z,17.70
2018-12-11T16:59:35.975Z,17.79
2018-12-11T17:00:35.443Z,17.80
2018-12-11T17:01:35.349Z,17.66
2018-12-11T17:02:35.313Z,17.66
2018-12-11T17:03:35.325Z,17.77
2018-12-11T17:04:35.351Z,17.65
2018-12-11T17:05:35.297Z,17.70
2018-12-11T17:06:35.275Z,17.73
2018-12-11T17:07:35.375Z,17.74
2018-12-11T17:08:35.516Z,17.65
2018-12-11T17:09:35.249Z,17.76
2018-12-11T17:10:35.506Z,17.70
2018-12-11T17:11:35.214Z,17.71
2018-12-11T17:12:35.218Z,17.68
2018-12-11T17:13:35.207Z,17.62
2018-12-11T17:14:35.756Z,17.66
2018-12-11T17:15:35.172Z,17.63
2018-12-11T17:16:35.250Z,17.62
2018-12-11T17:17:35.392Z,17.65
2018-12-11T17:18:35.162Z,17.58
2018-12-11T17:19:35.128Z,17.62
2018-12-11T17:20:35.161Z,17.60
2018-12-11T17:21:35.128Z,17.62
2018-12-11T17:22:35.151Z,17.55
2018-12-11T17:23:35.175Z,17.49
2018-12-11T17:24:35.128Z,17.54
2018-12-11T17:25:35.202Z,17.57
2018-12-11T17:26:35.119Z,17.54
2018-12-11T17:27:35.048Z,17.57
2018-12-11T17:28:35.052Z,17.51
2018-12-11T17:29:35.752Z,17.54
2018-12-11T17:30:35.005Z,17.55
2018-12-11T17:31:35.002Z,17.54
2018-12-11T17:32:35.248Z,17.55
2018-12-11T17:33:34.994Z,17.58
2018-12-11T17:34:34.974Z,17.63
2018-12-11T17:35:34.966Z,17.51
2018-12-11T17:36:34.969Z,17.63
2018-12-11T17:37:34.985Z,17.70
2018-12-11T17:38:34.942Z,17.70
2018-12-11T17:39:34.920Z,17.77
2018-12-11T17:40:34.903Z,17.71
2018-12-11T17:41:34.894Z,17.77
2018-12-11T17:42:34.893Z,17.86
2018-12-11T17:43:34.865Z,17.87
2018-12-11T17:44:35.731Z,17.87
2018-12-11T17:45:34.855Z,17.96
2018-12-11T17:46:34.834Z,17.96
2018-12-11T17:47:34.836Z,17.92
2018-12-11T17:48:41.419Z,17.95
2018-12-11T17:49:35.717Z,18.02
2018-12-11T17:50:34.938Z,18.02
2018-12-11T17:51:34.782Z,18.02
2018-12-11T17:52:34.826Z,18.11
2018-12-11T17:53:34.758Z,18.13
2018-12-11T17:54:34.952Z,18.16
2018-12-11T17:55:34.813Z,18.21
2018-12-11T17:56:34.718Z,18.20
2018-12-11T17:57:34.753Z,18.25
2018-12-11T17:58:34.736Z,18.29
2018-12-11T17:59:34.966Z,18.21
2018-12-11T18:00:35.454Z,18.29
2018-12-11T18:01:34.675Z,18.25
2018-12-11T18:02:34.659Z,18.25
2018-12-11T18:03:34.925Z,18.26
2018-12-11T18:04:34.655Z,18.34
2018-12-11T18:05:34.670Z,18.31
2018-12-11T18:06:34.623Z,18.36
2018-12-11T18:07:34.600Z,18.35
2018-12-11T18:08:35.170Z,18.35
2018-12-11T18:09:34.611Z,18.32
2018-12-11T18:10:34.941Z,18.35
2018-12-11T18:11:34.563Z,18.38
2018-12-11T18:12:34.607Z,18.38
2018-12-11T18:13:34.533Z,18.32
2018-12-11T18:14:34.674Z,18.41
2018-12-11T18:15:35.198Z,18.32
2018-12-11T18:16:34.504Z,18.31
2018-12-11T18:17:34.495Z,18.35
2018-12-11T18:18:34.487Z,18.35
2018-12-11T18:19:34.785Z,18.35
2018-12-11T18:20:35.053Z,18.32
2018-12-11T18:21:34.474Z,18.34
2018-12-11T18:22:34.445Z,18.36
2018-12-11T18:23:34.431Z,18.35
2018-12-11T18:24:34.839Z,18.32
2018-12-11T18:25:34.417Z,18.44
2018-12-11T18:26:34.436Z,18.38
2018-12-11T18:27:34.431Z,18.31
2018-12-11T18:28:34.370Z,18.38
2018-12-11T18:29:34.386Z,18.36
2018-12-11T18:30:35.228Z,18.29
2018-12-11T18:31:34.345Z,18.36
2018-12-11T18:32:34.620Z,18.29
2018-12-11T18:33:34.325Z,18.34
2018-12-11T18:34:34.370Z,18.36
2018-12-11T18:35:34.303Z,18.35
2018-12-11T18:36:34.282Z,18.29
2018-12-11T18:37:34.279Z,18.29
2018-12-11T18:38:34.267Z,18.34
2018-12-11T18:39:34.275Z,18.29
2018-12-11T18:40:35.047Z,18.25
2018-12-11T18:41:34.230Z,18.31
2018-12-11T18:42:34.222Z,18.28
2018-12-11T18:43:34.460Z,18.21
2018-12-11T18:44:35.952Z,18.34
2018-12-11T18:45:34.693Z,18.26
2018-12-11T18:46:34.174Z,18.25
2018-12-11T18:47:34.423Z,18.21
2018-12-11T18:48:34.197Z,18.23
2018-12-11T18:49:34.188Z,18.19
2018-12-11T18:50:35.509Z,18.26
2018-12-11T18:51:34.122Z,18.26
2018-12-11T18:52:34.169Z,18.28
2018-12-11T18:53:34.491Z,18.20
2018-12-11T18:54:34.102Z,18.26
2018-12-11T18:55:34.355Z,18.23
2018-12-11T18:56:34.080Z,18.21
2018-12-11T18:57:34.119Z,18.26
2018-12-11T18:58:34.463Z,18.26
2018-12-11T18:59:34.383Z,18.28
2018-12-11T19:00:34.049Z,18.26
2018-12-11T19:01:34.032Z,18.31
2018-12-11T19:02:34.015Z,18.29
2018-12-11T19:03:33.992Z,18.20
2018-12-11T19:04:34.723Z,18.17
2018-12-11T19:05:34.023Z,18.25
2018-12-11T19:06:33.964Z,18.21
2018-12-11T19:07:33.991Z,18.21
2018-12-11T19:08:34.010Z,18.25
2018-12-11T19:09:34.197Z,18.20
2018-12-11T19:10:33.926Z,18.28
2018-12-11T19:11:33.938Z,18.21
2018-12-11T19:12:33.950Z,18.11
2018-12-11T19:13:33.893Z,18.20
2018-12-11T19:14:33.932Z,18.20
2018-12-11T19:15:33.901Z,18.19
2018-12-11T19:16:33.853Z,18.16
2018-12-11T19:17:34.101Z,18.14
2018-12-11T19:18:33.864Z,18.19
2018-12-11T19:19:33.884Z,18.17
2018-12-11T19:20:33.816Z,18.17
2018-12-11T19:21:33.801Z,18.16
2018-12-11T19:22:33.797Z,18.17
2018-12-11T19:23:34.067Z,18.16
2018-12-11T19:24:33.777Z,18.20
2018-12-11T19:25:33.754Z,18.10
2018-12-11T19:26:33.731Z,18.16
2018-12-11T19:27:33.723Z,18.14
2018-12-11T19:28:33.717Z,18.16
2018-12-11T19:29:33.948Z,18.10
2018-12-11T19:30:33.705Z,18.13
2018-12-11T19:31:33.684Z,18.14
2018-12-11T19:32:33.668Z,18.10
2018-12-11T19:33:33.690Z,18.16
2018-12-11T19:34:33.663Z,18.16
2018-12-11T19:35:33.670Z,18.10
2018-12-11T19:36:33.686Z,18.07
2018-12-11T19:37:35.211Z,18.11
2018-12-11T19:38:33.602Z,18.11
2018-12-11T19:39:33.607Z,18.04
2018-12-11T19:40:33.603Z,18.11
2018-12-11T19:41:33.574Z,18.11
2018-12-11T19:42:34.651Z,18.05
2018-12-11T19:43:33.582Z,18.04
2018-12-11T19:44:33.722Z,18.05
2018-12-11T19:45:33.615Z,18.10
2018-12-11T19:46:33.544Z,18.09
2018-12-11T19:47:33.637Z,17.99
2018-12-11T19:48:33.528Z,18.05
2018-12-11T19:49:33.491Z,18.07
2018-12-11T19:50:33.532Z,18.07
2018-12-11T19:51:33.716Z,18.04
2018-12-11T19:52:39.517Z,18.09
2018-12-11T19:53:33.438Z,18.05
2018-12-11T19:54:34.449Z,18.05
2018-12-11T19:55:33.432Z,18.04
2018-12-11T19:56:33.402Z,18.05
2018-12-11T19:57:33.643Z,18.07
2018-12-11T19:58:33.389Z,18.04
2018-12-11T19:59:33.373Z,18.07
2018-12-11T20:00:33.443Z,18.07
2018-12-11T20:01:33.347Z,18.07
2018-12-11T20:02:33.352Z,18.02
2018-12-11T20:03:33.369Z,18.05
2018-12-11T20:04:33.334Z,18.04
2018-12-11T20:05:33.330Z,18.07
2018-12-11T20:06:33.318Z,18.07
2018-12-11T20:07:33.283Z,18.01
2018-12-11T20:08:33.280Z,18.04
2018-12-11T20:09:33.309Z,18.07
2018-12-11T20:10:33.288Z,18.04
2018-12-11T20:11:33.489Z,18.04
2018-12-11T20:12:33.550Z,18.07
2018-12-11T20:13:33.471Z,18.04
2018-12-11T20:14:33.460Z,18.04
2018-12-11T20:15:33.685Z,18.02
2018-12-11T20:16:33.189Z,18.04
2018-12-11T20:17:33.174Z,18.07
2018-12-11T20:18:33.181Z,18.13
2018-12-11T20:19:33.152Z,18.07
2018-12-11T20:20:33.219Z,17.99
2018-12-11T20:21:33.129Z,18.01
2018-12-11T20:22:33.137Z,18.02
2018-12-11T20:23:33.148Z,18.04
2018-12-11T20:24:33.140Z,18.04
2018-12-11T20:25:34.718Z,18.04
2018-12-11T20:26:39.276Z,18.04
2018-12-11T20:27:33.317Z,17.98
2018-12-11T20:28:33.056Z,17.95
2018-12-11T20:29:33.120Z,17.99
2018-12-11T20:30:33.072Z,17.96
2018-12-11T20:31:33.277Z,17.98
2018-12-11T20:32:35.298Z,17.98
2018-12-11T20:33:32.997Z,18.01
2018-12-11T20:34:33.325Z,18.04
2018-12-11T20:35:32.995Z,17.96
2018-12-11T20:36:33.039Z,17.99
2018-12-11T20:37:33.032Z,18.01
2018-12-11T20:38:33.267Z,18.01
2018-12-11T20:39:33.728Z,17.96
2018-12-11T20:40:33.103Z,18.01
2018-12-11T20:41:33.217Z,17.98
2018-12-11T20:42:32.959Z,17.99
2018-12-11T20:43:32.971Z,17.99
2018-12-11T20:44:32.964Z,17.96
2018-12-11T20:45:32.913Z,18.01
2018-12-11T20:46:33.493Z,17.96
2018-12-11T20:47:32.864Z,17.94
2018-12-11T20:48:32.947Z,17.96
2018-12-11T20:49:32.829Z,17.96
2018-12-11T20:50:32.879Z,17.96
2018-12-11T20:51:32.826Z,18.01
2018-12-11T20:52:33.803Z,17.98
2018-12-11T20:53:32.892Z,17.96
2018-12-11T20:54:33.712Z,17.95
2018-12-11T20:55:33.024Z,17.96
2018-12-11T20:56:33.492Z,18.09
2018-12-11T20:57:32.748Z,17.94
2018-12-11T20:58:32.737Z,17.98
2018-12-11T20:59:32.714Z,17.95
2018-12-11T21:00:32.709Z,18.05
2018-12-11T21:01:33.001Z,18.05
2018-12-11T21:02:32.682Z,17.98
2018-12-11T21:03:32.771Z,17.95
2018-12-11T21:04:32.724Z,17.95
2018-12-11T21:05:32.669Z,17.92
2018-12-11T21:06:32.657Z,17.91
2018-12-11T21:07:32.631Z,17.95
2018-12-11T21:08:32.660Z,17.98
2018-12-11T21:09:32.670Z,17.98
2018-12-11T21:10:32.596Z,18.04
2018-12-11T21:11:32.880Z,17.87
2018-12-11T21:12:32.888Z,17.94
2018-12-11T21:13:32.651Z,17.92
2018-12-11T21:14:32.851Z,17.92
2018-12-11T21:15:32.545Z,17.95
2018-12-11T21:16:32.684Z,17.94
2018-12-11T21:17:32.578Z,17.92
2018-12-11T21:18:32.698Z,17.96
2018-12-11T21:19:32.507Z,17.92
2018-12-11T21:20:32.505Z,17.95
2018-12-11T21:21:32.503Z,17.96
2018-12-11T21:22:32.476Z,17.91
2018-12-11T21:23:32.462Z,17.91
2018-12-11T21:24:32.492Z,18.02
2018-12-11T21:25:32.433Z,17.92
2018-12-11T21:26:32.445Z,17.83
2018-12-11T21:27:32.706Z,17.99
2018-12-11T21:28:32.412Z,18.07
2018-12-11T21:29:32.713Z,17.92
2018-12-11T21:30:32.395Z,17.91
2018-12-11T21:31:32.390Z,18.02
2018-12-11T21:32:32.609Z,17.92
2018-12-11T21:33:32.354Z,18.02
2018-12-11T21:34:32.988Z,17.95
2018-12-11T21:35:32.375Z,17.94
2018-12-11T21:36:32.338Z,17.89
2018-12-11T21:37:32.313Z,17.92
2018-12-11T21:38:32.297Z,17.91
2018-12-11T21:39:32.284Z,17.94
2018-12-11T21:40:32.524Z,17.92
2018-12-11T21:41:32.556Z,17.89
2018-12-11T21:42:32.263Z,17.96
2018-12-11T21:43:32.242Z,17.92
2018-12-11T21:44:32.224Z,17.92
2018-12-11T21:45:32.304Z,17.86
2018-12-11T21:46:32.228Z,18.05
2018-12-11T21:47:32.492Z,18.02
2018-12-11T21:48:32.179Z,17.98
2018-12-11T21:49:32.204Z,17.96
2018-12-11T21:50:32.163Z,18.07
2018-12-11T21:51:32.177Z,17.96
2018-12-11T21:52:32.175Z,18.07
2018-12-11T21:53:32.386Z,18.02
2018-12-11T21:54:32.116Z,17.96
2018-12-11T21:55:32.103Z,17.99
2018-12-11T21:56:32.116Z,18.04
2018-12-11T21:57:32.090Z,17.98
2018-12-11T21:58:32.073Z,17.81
2018-12-11T21:59:32.314Z,17.91
2018-12-11T22:00:32.094Z,17.95
2018-12-11T22:01:32.327Z,18.04
2018-12-11T22:02:32.526Z,18.04
2018-12-11T22:03:32.027Z,18.07
2018-12-11T22:04:32.020Z,17.92
2018-12-11T22:05:32.003Z,18.02
2018-12-11T22:06:32.086Z,17.95
2018-12-11T22:07:32.699Z,17.99
2018-12-11T22:08:32.028Z,17.92
2018-12-11T22:09:32.016Z,17.92
2018-12-11T22:10:31.944Z,17.89
2018-12-11T22:11:31.950Z,17.98
2018-12-11T22:12:31.962Z,17.94
2018-12-11T22:13:32.158Z,17.99
2018-12-11T22:14:31.896Z,17.94
2018-12-11T22:15:31.891Z,17.95
2018-12-11T22:16:31.873Z,17.96
2018-12-11T22:17:31.887Z,18.07
2018-12-11T22:18:31.855Z,18.04
2018-12-11T22:19:31.840Z,17.99
2018-12-11T22:20:31.838Z,17.94
2018-12-11T22:21:31.838Z,17.99
2018-12-11T22:22:32.685Z,18.01
2018-12-11T22:23:31.795Z,18.01
2018-12-11T22:24:31.785Z,18.02
2018-12-11T22:25:31.782Z,17.92
2018-12-11T22:26:31.764Z,18.05
2018-12-11T22:27:32.020Z,18.04
2018-12-11T22:28:32.694Z,17.92
2018-12-11T22:29:31.741Z,18.05
2018-12-11T22:30:31.720Z,17.95
2018-12-11T22:31:31.710Z,17.92
2018-12-11T22:32:31.730Z,18.05
2018-12-11T22:33:31.687Z,17.91
2018-12-11T22:34:31.676Z,17.91
2018-12-11T22:35:31.673Z,17.99
2018-12-11T22:36:31.704Z,17.91
2018-12-11T22:37:31.659Z,17.94
2018-12-11T22:38:31.706Z,17.92
2018-12-11T22:39:31.635Z,17.92
2018-12-11T22:40:31.608Z,17.98
2018-12-11T22:41:31.606Z,18.01
2018-12-11T22:42:31.606Z,17.92
2018-12-11T22:43:31.577Z,17.87
2018-12-11T22:44:32.129Z,17.91
2018-12-11T22:45:31.561Z,17.95
2018-12-11T22:46:31.776Z,17.86
2018-12-11T22:47:31.604Z,17.89
2018-12-11T22:48:31.779Z,18.07
2018-12-11T22:49:33.708Z,17.91
2018-12-11T22:50:31.502Z,17.92
2018-12-11T22:51:31.536Z,17.89
2018-12-11T22:52:31.564Z,17.91
2018-12-11T22:53:31.491Z,17.91
2018-12-11T22:54:31.463Z,17.91
2018-12-11T22:55:31.695Z,17.86
2018-12-11T22:56:31.442Z,17.99
2018-12-11T22:57:31.454Z,17.92
2018-12-11T22:58:31.471Z,17.96
2018-12-11T22:59:31.464Z,17.89
2018-12-11T23:00:31.395Z,17.89
2018-12-11T23:01:31.384Z,17.86
2018-12-11T23:02:31.395Z,17.86
2018-12-11T23:04:53.852Z,17.94
2018-12-11T23:05:31.372Z,17.94
2018-12-11T23:06:31.329Z,17.96
2018-12-11T23:07:31.349Z,17.94
2018-12-11T23:08:31.996Z,17.89
2018-12-11T23:09:31.294Z,17.91
2018-12-11T23:10:31.288Z,17.84
2018-12-11T23:11:31.281Z,17.87
2018-12-11T23:12:31.304Z,17.87
2018-12-11T23:13:31.251Z,17.91
2018-12-11T23:14:31.252Z,17.86
2018-12-11T23:15:31.246Z,17.92
2018-12-11T23:16:31.471Z,17.89
2018-12-11T23:17:31.235Z,17.99
2018-12-11T23:18:31.204Z,17.84
2018-12-11T23:19:31.191Z,17.92
2018-12-11T23:20:31.170Z,17.91
2018-12-11T23:21:31.232Z,17.91
2018-12-11T23:22:31.172Z,17.96
2018-12-11T23:23:31.426Z,17.89
2018-12-11T23:24:31.130Z,17.96
2018-12-11T23:25:31.114Z,17.94
2018-12-11T23:26:31.108Z,17.92
2018-12-11T23:27:31.128Z,17.81
2018-12-11T23:28:31.086Z,17.89
2018-12-11T23:29:31.079Z,17.95
2018-12-11T23:30:31.094Z,17.92
2018-12-11T23:31:31.151Z,17.92
2018-12-11T23:32:31.049Z,17.92
2018-12-11T23:33:31.334Z,18.01
2018-12-11T23:34:31.019Z,17.83
2018-12-11T23:35:31.005Z,17.91
2018-12-11T23:36:31.038Z,17.84
2018-12-11T23:37:31.005Z,17.87
2018-12-11T23:38:30.988Z,17.91
2018-12-11T23:39:30.977Z,17.92
2018-12-11T23:40:31.002Z,17.91
2018-12-11T23:41:30.945Z,17.96
2018-12-11T23:42:31.003Z,17.87
2018-12-11T23:43:30.927Z,17.95
2018-12-11T23:44:30.910Z,17.94
2018-12-11T23:45:31.157Z,17.91
2018-12-11T23:46:30.889Z,17.87
2018-12-11T23:47:30.896Z,17.83
2018-12-11T23:48:30.868Z,17.94
2018-12-11T23:49:30.861Z,17.91
2018-12-11T23:50:34.070Z,17.87
2018-12-11T23:51:30.835Z,17.91
2018-12-11T23:52:30.820Z,17.87
2018-12-11T23:53:30.835Z,17.87
2018-12-11T23:54:30.797Z,17.91
2018-12-11T23:55:31.107Z,17.89
2018-12-11T23:56:30.789Z,17.89
2018-12-11T23:57:30.767Z,17.89
2018-12-11T23:58:30.775Z,17.91
2018-12-11T23:59:30.769Z,17.95
